createdAt,value
2022-10-13T00:01:08.938Z,30.02
2022-10-13T00:03:37.352Z,38.40
2022-10-13T00:06:07.694Z,35.72
2022-10-13T00:11:02.693Z,32.25
2022-10-13T00:13:30.256Z,30.65
2022-10-13T00:15:57.347Z,32.80
2022-10-13T00:18:28.087Z,33.60
2022-10-13T00:20:57.250Z,35.67
2022-10-13T00:23:24.963Z,42.65
2022-10-13T00:25:52.192Z,32.50
2022-10-13T00:28:20.662Z,36.03
2022-10-13T00:30:48.065Z,31.88
2022-10-13T00:33:15.447Z,31.90
2022-10-13T00:35:47.429Z,35.90
2022-10-13T00:38:17.646Z,35.00
2022-10-13T00:40:51.056Z,33.05
2022-10-13T00:43:20.132Z,36.25
2022-10-13T00:45:51.354Z,36.78
2022-10-13T00:48:31.394Z,38.80
2022-10-13T00:50:59.545Z,34.65
2022-10-13T00:53:32.839Z,39.30
2022-10-13T00:56:00.854Z,33.53
2022-10-13T00:58:32.007Z,36.33
2022-10-13T01:00:59.954Z,33.08
2022-10-13T01:03:27.583Z,33.15
2022-10-13T01:05:57.947Z,38.33
2022-10-13T01:11:23.282Z,37.40
2022-10-13T01:14:02.142Z,39.22
2022-10-13T01:16:44.703Z,35.28
2022-10-13T01:19:54.927Z,38.88
2022-10-13T01:23:04.477Z,40.20
2022-10-13T01:25:50.266Z,33.85
2022-10-13T01:28:38.054Z,30.58
2022-10-13T01:31:16.274Z,41.25
2022-10-13T01:33:58.644Z,38.45
2022-10-13T01:36:56.963Z,43.97
2022-10-13T01:39:52.604Z,39.05
2022-10-13T01:42:26.263Z,42.92
2022-10-13T01:44:59.285Z,43.30
2022-10-13T01:47:27.474Z,35.88
2022-10-13T01:49:55.803Z,40.90
2022-10-13T01:52:26.807Z,32.40
2022-10-13T01:54:55.024Z,40.45
2022-10-13T01:57:34.913Z,43.60
2022-10-13T02:00:08.194Z,34.72
2022-10-13T02:03:01.147Z,42.45
2022-10-13T02:05:38.472Z,42.33
2022-10-13T02:08:17.826Z,42.25
2022-10-13T02:11:02.190Z,46.83
2022-10-13T02:13:32.127Z,40.33
2022-10-13T02:16:01.545Z,42.13
2022-10-13T02:18:35.065Z,42.60
2022-10-13T02:21:03.900Z,37.40
2022-10-13T02:23:32.119Z,38.78
2022-10-13T02:26:00.826Z,45.83
2022-10-13T02:28:28.699Z,40.88
2022-10-13T02:30:55.947Z,42.90
2022-10-13T02:33:23.104Z,40.35
2022-10-13T02:35:50.181Z,39.47
2022-10-13T02:38:19.030Z,40.05
2022-10-13T02:40:46.693Z,42.53
2022-10-13T02:43:13.828Z,40.00
2022-10-13T02:45:41.286Z,42.08
2022-10-13T02:48:08.366Z,41.83
2022-10-13T02:50:35.810Z,41.55
2022-10-13T02:53:03.253Z,38.45
2022-10-13T02:55:30.685Z,45.40
2022-10-13T02:57:58.012Z,39.40
2022-10-13T03:00:26.152Z,39.80
2022-10-13T03:02:54.615Z,42.30
2022-10-13T03:05:21.858Z,40.10
2022-10-13T03:07:49.991Z,39.47
2022-10-13T03:10:17.153Z,43.47
2022-10-13T03:12:44.413Z,37.95
2022-10-13T03:15:11.730Z,43.05
2022-10-13T03:17:38.852Z,42.70
2022-10-13T03:20:07.082Z,40.05
2022-10-13T03:22:34.368Z,42.70
2022-10-13T03:25:01.654Z,39.58
2022-10-13T03:27:29.058Z,40.10
2022-10-13T03:29:56.549Z,35.50
2022-10-13T03:32:23.919Z,47.58
2022-10-13T03:34:51.865Z,45.22
2022-10-13T03:37:18.974Z,40.10
2022-10-13T03:39:46.453Z,42.38
2022-10-13T03:42:13.934Z,40.65
2022-10-13T03:44:42.737Z,38.42
2022-10-13T03:47:10.137Z,37.70
2022-10-13T03:49:39.493Z,35.75
2022-10-13T03:52:06.984Z,37.47
2022-10-13T03:54:34.245Z,38.03
2022-10-13T03:57:02.739Z,43.28
2022-10-13T03:59:35.701Z,41.20
2022-10-13T04:02:04.053Z,37.63
2022-10-13T04:04:31.453Z,41.95
2022-10-13T04:06:58.757Z,43.20
2022-10-13T04:09:26.177Z,35.28
2022-10-13T04:11:53.576Z,34.42
2022-10-13T04:14:20.755Z,36.78
2022-10-13T04:16:48.382Z,39.97
2022-10-13T04:19:16.344Z,44.63
2022-10-13T04:21:44.397Z,35.17
2022-10-13T04:24:15.016Z,35.00
2022-10-13T04:26:42.621Z,35.88
2022-10-13T04:29:11.563Z,42.45
2022-10-13T04:31:40.966Z,39.75
2022-10-13T04:34:08.721Z,37.10
2022-10-13T04:36:35.939Z,41.47
2022-10-13T04:39:03.845Z,40.40
2022-10-13T04:44:02.729Z,36.70
2022-10-13T04:46:30.408Z,37.95
2022-10-13T04:48:58.081Z,36.75
2022-10-13T04:51:32.729Z,40.17
2022-10-13T04:54:02.287Z,37.38
2022-10-13T04:56:30.009Z,35.10
2022-10-13T04:59:05.494Z,36.50
2022-10-13T05:01:33.494Z,33.38
2022-10-13T05:04:03.745Z,32.13
2022-10-13T05:06:58.839Z,34.85
2022-10-13T05:09:27.479Z,39.08
2022-10-13T05:11:57.917Z,32.63
2022-10-13T05:14:25.159Z,38.13
2022-10-13T05:16:52.478Z,34.97
2022-10-13T05:19:20.733Z,40.53
2022-10-13T05:21:49.715Z,33.95
2022-10-13T05:24:16.934Z,38.55
2022-10-13T05:26:47.638Z,38.75
2022-10-13T05:29:15.175Z,35.40
2022-10-13T05:31:42.257Z,33.78
2022-10-13T05:34:09.835Z,37.88
2022-10-13T05:36:36.983Z,35.80
2022-10-13T05:39:07.804Z,36.35
2022-10-13T05:41:36.283Z,38.50
2022-10-13T05:44:10.666Z,36.15
2022-10-13T05:46:44.198Z,33.42
2022-10-13T05:49:11.687Z,34.50
2022-10-13T05:51:44.127Z,37.25
2022-10-13T05:54:26.345Z,36.13
2022-10-13T05:57:07.857Z,36.53
2022-10-13T05:59:40.307Z,39.17
2022-10-13T06:02:10.645Z,34.42
2022-10-13T06:07:12.061Z,37.13
2022-10-13T06:09:40.858Z,33.25
2022-10-13T06:12:09.706Z,39.28
2022-10-13T06:14:38.056Z,38.10
2022-10-13T06:17:07.545Z,43.03
2022-10-13T06:19:34.891Z,36.42
2022-10-13T06:22:07.632Z,31.60
2022-10-13T06:24:35.158Z,36.08
2022-10-13T06:27:04.199Z,33.25
2022-10-13T06:29:33.301Z,40.10
2022-10-13T06:32:00.578Z,37.22
2022-10-13T06:34:27.994Z,37.05
2022-10-13T06:36:56.067Z,32.05
2022-10-13T06:39:23.203Z,31.98
2022-10-13T06:41:50.976Z,33.47
2022-10-13T06:44:18.129Z,32.10
2022-10-13T06:46:45.203Z,30.60
2022-10-13T06:49:12.538Z,35.00
2022-10-13T06:51:39.952Z,32.30
2022-10-13T06:54:07.174Z,36.28
2022-10-13T06:56:34.383Z,28.25
2022-10-13T06:59:09.628Z,38.97
2022-10-13T07:01:41.479Z,35.92
2022-10-13T07:04:13.194Z,32.38
2022-10-13T07:06:40.716Z,33.35
2022-10-13T07:09:09.275Z,39.13
2022-10-13T07:11:36.555Z,38.40
2022-10-13T07:14:03.908Z,31.73
2022-10-13T07:16:31.712Z,34.13
2022-10-13T07:18:58.793Z,30.88
2022-10-13T07:21:25.992Z,29.25
2022-10-13T07:23:53.118Z,33.40
2022-10-13T07:26:21.120Z,33.22
2022-10-13T07:28:48.813Z,31.75
2022-10-13T07:31:18.681Z,28.30
2022-10-13T07:33:49.002Z,31.23
2022-10-13T07:36:17.680Z,30.17
2022-10-13T07:38:45.157Z,26.85
2022-10-13T07:41:13.243Z,33.08
2022-10-13T07:43:40.937Z,29.58
2022-10-13T07:46:10.552Z,28.77
2022-10-13T07:48:37.665Z,28.63
2022-10-13T07:51:07.964Z,25.83
2022-10-13T07:56:05.414Z,57.95
2022-10-13T07:58:36.883Z,27.85
2022-10-13T08:01:04.696Z,28.38
2022-10-13T08:03:34.223Z,30.55
2022-10-13T08:06:02.844Z,34.67
2022-10-13T08:08:30.906Z,28.58
2022-10-13T08:11:07.000Z,37.50
2022-10-13T08:13:35.101Z,27.23
2022-10-13T08:16:13.772Z,44.58
2022-10-13T08:18:41.432Z,31.70
2022-10-13T08:21:53.254Z,39.33
2022-10-13T08:24:00.750Z,25.33
2022-10-13T08:26:29.342Z,24.77
2022-10-13T08:29:16.791Z,27.73
2022-10-13T08:31:45.105Z,20.77
2022-10-13T08:34:12.787Z,22.33
2022-10-13T08:36:40.789Z,23.27
2022-10-13T08:39:08.424Z,22.73
2022-10-13T08:41:44.020Z,22.50
2022-10-13T08:47:42.050Z,23.00
2022-10-13T08:50:23.494Z,25.08
2022-10-13T08:55:28.307Z,21.38
2022-10-13T08:57:55.913Z,24.08
2022-10-13T09:00:26.940Z,17.45
2022-10-13T09:02:54.349Z,18.50
2022-10-13T09:05:41.847Z,17.48
2022-10-13T09:08:19.683Z,18.00
2022-10-13T09:10:51.504Z,19.42
2022-10-13T09:13:19.992Z,20.17
2022-10-13T09:15:50.743Z,16.40
2022-10-13T09:18:18.943Z,14.70
2022-10-13T09:20:46.200Z,14.15
2022-10-13T09:23:23.214Z,14.77
2022-10-13T09:25:52.659Z,13.80
2022-10-13T09:28:30.858Z,15.40
2022-10-13T09:31:35.845Z,17.05
2022-10-13T09:34:15.448Z,12.88
2022-10-13T09:37:03.775Z,14.27
2022-10-13T09:39:32.246Z,17.33
2022-10-13T09:42:18.534Z,15.88
2022-10-13T09:44:47.293Z,14.52
2022-10-13T09:47:22.102Z,14.75
2022-10-13T09:50:19.886Z,18.48
2022-10-13T09:52:48.243Z,14.70
2022-10-13T09:55:34.284Z,11.52
2022-10-13T09:58:07.445Z,14.07
2022-10-13T10:00:35.632Z,10.93
2022-10-13T10:03:11.201Z,13.15
2022-10-13T10:05:54.159Z,15.77
2022-10-13T10:09:04.325Z,12.75
2022-10-13T10:14:28.940Z,10.65
2022-10-13T10:17:31.713Z,14.02
2022-10-13T10:20:24.573Z,10.32
2022-10-13T10:23:20.634Z,11.77
2022-10-13T10:25:52.597Z,14.70
2022-10-13T10:28:29.508Z,13.48
2022-10-13T10:31:39.374Z,12.77
2022-10-13T10:34:18.333Z,15.20
2022-10-13T10:37:08.957Z,14.05
2022-10-13T10:39:39.143Z,12.23
2022-10-13T10:42:09.047Z,13.05
2022-10-13T10:44:41.870Z,12.20
2022-10-13T10:47:23.759Z,9.43
2022-10-13T10:49:55.946Z,14.73
2022-10-13T10:52:30.506Z,15.02
2022-10-13T10:55:02.178Z,11.20
2022-10-13T10:57:38.334Z,11.93
2022-10-13T11:00:39.705Z,9.68
2022-10-13T11:03:22.206Z,13.95
2022-10-13T11:05:58.375Z,10.15
2022-10-13T11:08:42.163Z,11.70
2022-10-13T11:11:26.663Z,12.60
2022-10-13T11:14:01.956Z,11.73
2022-10-13T11:16:29.365Z,13.75
2022-10-13T11:19:08.672Z,10.70
2022-10-13T11:21:54.081Z,14.48
2022-10-13T11:24:39.871Z,14.35
2022-10-13T11:27:12.823Z,12.07
2022-10-13T11:29:58.102Z,12.18
2022-10-13T11:32:41.436Z,12.13
2022-10-13T11:35:08.846Z,13.15
2022-10-13T11:38:05.582Z,17.08
2022-10-13T11:40:41.806Z,13.70
2022-10-13T11:43:32.113Z,16.13
2022-10-13T11:46:05.373Z,15.98
2022-10-13T11:49:00.146Z,11.50
2022-10-13T11:52:12.751Z,15.02
2022-10-13T11:54:48.620Z,17.23
2022-10-13T11:57:24.482Z,11.43
2022-10-13T11:59:55.638Z,11.65
2022-10-13T12:02:51.587Z,10.65
2022-10-13T12:05:26.943Z,11.68
2022-10-13T12:07:58.926Z,10.70
2022-10-13T12:10:36.283Z,14.07
2022-10-13T12:13:06.561Z,14.23
2022-10-13T12:15:37.967Z,11.65
2022-10-13T12:18:39.421Z,11.20
2022-10-13T12:21:15.418Z,11.98
2022-10-13T12:23:42.637Z,9.65
2022-10-13T12:26:25.992Z,14.88
2022-10-13T12:29:04.363Z,14.75
2022-10-13T12:31:47.344Z,10.35
2022-10-13T12:34:21.983Z,14.38
2022-10-13T12:36:56.357Z,13.25
2022-10-13T12:39:26.028Z,11.70
2022-10-13T12:41:54.757Z,13.57
2022-10-13T12:44:27.953Z,10.68
2022-10-13T12:47:02.253Z,13.32
2022-10-13T12:49:35.725Z,11.55
2022-10-13T12:52:34.640Z,11.52
2022-10-13T12:55:02.366Z,12.38
2022-10-13T12:57:38.836Z,10.35
2022-10-13T13:00:18.894Z,18.00
2022-10-13T13:03:22.476Z,11.60
2022-10-13T13:05:52.883Z,8.73
2022-10-13T13:08:31.995Z,11.77
2022-10-13T13:11:07.987Z,12.65
2022-10-13T13:13:35.183Z,10.90
2022-10-13T13:16:37.494Z,9.85
2022-10-13T13:19:04.777Z,12.90
2022-10-13T13:21:31.894Z,14.88
2022-10-13T13:23:59.452Z,15.02
2022-10-13T13:26:28.694Z,11.43
2022-10-13T13:28:57.291Z,13.18
2022-10-13T13:31:26.109Z,12.85
2022-10-13T13:33:53.646Z,11.00
2022-10-13T13:36:23.327Z,14.25
2022-10-13T13:38:53.108Z,13.18
2022-10-13T13:41:21.553Z,10.63
2022-10-13T13:43:49.113Z,10.32
2022-10-13T13:46:24.903Z,9.05
2022-10-13T13:48:52.573Z,12.40
2022-10-13T13:51:19.796Z,12.82
2022-10-13T13:53:48.448Z,14.20
2022-10-13T13:56:18.850Z,17.27
2022-10-13T14:01:14.374Z,11.75
2022-10-13T14:03:41.948Z,13.07
2022-10-13T14:06:19.519Z,17.40
2022-10-13T14:08:46.886Z,11.82
2022-10-13T14:11:14.195Z,12.93
2022-10-13T14:13:41.327Z,13.40
2022-10-13T14:16:15.251Z,13.32
2022-10-13T14:18:42.633Z,14.98
2022-10-13T14:21:09.865Z,14.82
2022-10-13T14:23:37.202Z,18.27
2022-10-13T14:26:09.927Z,25.27
2022-10-13T14:28:37.347Z,11.73
2022-10-13T14:31:07.959Z,11.73
2022-10-13T14:33:36.112Z,22.92
2022-10-13T14:36:06.108Z,14.18
2022-10-13T14:38:34.339Z,11.10
2022-10-13T14:41:03.014Z,54.13
2022-10-13T14:43:30.717Z,17.67
2022-10-13T14:46:07.273Z,13.05
2022-10-13T14:48:36.283Z,38.35
2022-10-13T14:51:08.574Z,15.13
2022-10-13T14:53:37.594Z,24.38
2022-10-13T14:56:21.082Z,31.58
2022-10-13T14:58:54.380Z,12.07
2022-10-13T15:01:21.874Z,16.57
2022-10-13T15:03:49.497Z,13.23
2022-10-13T15:06:22.465Z,12.02
2022-10-13T15:08:49.794Z,12.07
2022-10-13T15:11:18.670Z,18.10
2022-10-13T15:13:46.363Z,13.48
2022-10-13T15:16:19.483Z,10.60
2022-10-13T15:18:46.913Z,13.45
2022-10-13T15:21:14.606Z,13.95
2022-10-13T15:23:42.403Z,10.98
2022-10-13T15:26:12.642Z,15.57
2022-10-13T15:28:43.099Z,11.60
2022-10-13T15:31:11.251Z,15.48
2022-10-13T15:33:38.645Z,10.95
2022-10-13T15:36:06.113Z,13.52
2022-10-13T15:38:33.587Z,14.40
2022-10-13T15:41:01.330Z,14.73
2022-10-13T15:43:29.216Z,17.40
2022-10-13T15:46:08.256Z,12.93
2022-10-13T15:48:35.773Z,11.65
2022-10-13T15:51:09.427Z,11.55
2022-10-13T15:53:36.911Z,11.27
2022-10-13T15:56:03.978Z,11.52
2022-10-13T15:58:31.195Z,10.68
2022-10-13T16:00:58.483Z,11.85
2022-10-13T16:03:30.098Z,13.65
2022-10-13T16:05:57.245Z,15.02
2022-10-13T16:08:24.435Z,16.55
2022-10-13T16:10:51.633Z,16.40
2022-10-13T16:13:19.946Z,14.77
2022-10-13T16:15:58.392Z,12.95
2022-10-13T16:18:30.241Z,11.88
2022-10-13T16:20:57.569Z,13.02
2022-10-13T16:23:25.498Z,20.40
2022-10-13T16:25:52.854Z,17.23
2022-10-13T16:28:20.105Z,17.40
2022-10-13T16:30:47.399Z,24.67
2022-10-13T16:33:14.593Z,18.20
2022-10-13T16:35:41.953Z,22.35
2022-10-13T16:38:09.686Z,24.52
2022-10-13T16:40:39.696Z,17.30
2022-10-13T16:43:07.325Z,17.05
2022-10-13T16:45:55.190Z,17.58
2022-10-13T16:48:21.928Z,20.40
2022-10-13T16:50:49.353Z,19.23
2022-10-13T16:53:21.290Z,21.92
2022-10-13T16:55:48.585Z,17.65
2022-10-13T16:58:16.252Z,18.23
2022-10-13T17:00:43.474Z,18.05
2022-10-13T17:03:10.793Z,20.23
2022-10-13T17:05:38.024Z,21.65
2022-10-13T17:08:05.290Z,21.63
2022-10-13T17:10:33.655Z,22.70
2022-10-13T17:13:01.847Z,24.77
2022-10-13T17:15:32.359Z,20.38
2022-10-13T17:17:59.613Z,24.85
2022-10-13T17:20:26.901Z,25.95
2022-10-13T17:22:54.853Z,24.23
2022-10-13T17:25:22.188Z,25.30
2022-10-13T17:27:49.372Z,26.27
2022-10-13T17:30:16.540Z,26.02
2022-10-13T17:32:44.053Z,25.17
2022-10-13T17:35:14.614Z,23.10
2022-10-13T17:37:41.958Z,23.35
2022-10-13T17:40:12.767Z,21.73
2022-10-13T17:42:40.244Z,24.52
2022-10-13T17:45:07.968Z,21.77
2022-10-13T17:47:35.188Z,24.77
2022-10-13T17:50:02.387Z,24.48
2022-10-13T17:52:29.687Z,21.90
2022-10-13T17:54:56.988Z,26.88
2022-10-13T17:57:30.237Z,20.95
2022-10-13T18:00:05.121Z,20.23
2022-10-13T18:02:39.633Z,23.52
2022-10-13T18:05:07.314Z,23.35
2022-10-13T18:07:34.653Z,22.48
2022-10-13T18:10:01.778Z,19.63
2022-10-13T18:12:29.029Z,20.67
2022-10-13T18:14:56.164Z,23.42
2022-10-13T18:17:23.644Z,20.83
2022-10-13T18:19:51.325Z,20.38
2022-10-13T18:22:18.459Z,19.80
2022-10-13T18:24:46.757Z,19.42
2022-10-13T18:27:13.948Z,23.45
2022-10-13T18:29:42.440Z,24.33
2022-10-13T18:32:09.692Z,22.85
2022-10-13T18:34:37.144Z,20.27
2022-10-13T18:37:05.974Z,24.35
2022-10-13T18:39:34.683Z,22.77
2022-10-13T18:42:01.948Z,25.58
2022-10-13T18:44:34.627Z,24.75
2022-10-13T18:47:01.862Z,24.98
2022-10-13T18:49:31.726Z,24.38
2022-10-13T18:52:02.591Z,25.55
2022-10-13T18:54:30.605Z,26.85
2022-10-13T18:56:58.254Z,25.38
2022-10-13T18:59:25.589Z,23.42
2022-10-13T19:01:52.828Z,27.13
2022-10-13T19:04:22.766Z,27.48
2022-10-13T19:06:50.865Z,25.85
2022-10-13T19:09:18.038Z,29.85
2022-10-13T19:11:45.426Z,31.15
2022-10-13T19:14:16.542Z,27.60
2022-10-13T19:16:44.600Z,29.58
2022-10-13T19:19:12.091Z,26.67
2022-10-13T19:21:39.812Z,27.65
2022-10-13T19:24:09.632Z,28.70
2022-10-13T19:26:37.287Z,31.85
2022-10-13T19:29:10.574Z,29.33
2022-10-13T19:31:39.580Z,29.30
2022-10-13T19:34:10.324Z,34.20
2022-10-13T19:36:41.171Z,28.92
2022-10-13T19:39:16.496Z,32.55
2022-10-13T19:41:45.279Z,29.52
2022-10-13T19:44:12.823Z,36.65
2022-10-13T19:46:41.799Z,32.58
2022-10-13T19:49:09.594Z,33.85
2022-10-13T19:51:41.845Z,37.20
2022-10-13T19:56:36.653Z,31.92
2022-10-13T19:59:05.565Z,31.08
2022-10-13T20:01:40.082Z,33.17
2022-10-13T20:04:14.401Z,32.53
2022-10-13T20:06:44.411Z,33.42
2022-10-13T20:09:12.312Z,37.58
2022-10-13T20:11:39.468Z,34.70
2022-10-13T20:14:06.639Z,36.10
2022-10-13T20:16:33.787Z,35.33
2022-10-13T20:19:01.508Z,39.67
2022-10-13T20:21:29.706Z,38.40
2022-10-13T20:23:57.609Z,39.95
2022-10-13T20:26:25.825Z,41.40
2022-10-13T20:28:53.905Z,36.95
2022-10-13T20:31:22.537Z,38.95
2022-10-13T20:33:57.187Z,42.80
2022-10-13T20:36:28.947Z,44.08
2022-10-13T20:38:56.179Z,42.83
2022-10-13T20:41:29.636Z,39.03
2022-10-13T20:43:59.383Z,44.65
2022-10-13T20:46:27.562Z,42.70
2022-10-13T20:49:12.204Z,39.58
2022-10-13T20:51:40.724Z,41.88
2022-10-13T20:54:08.114Z,41.22
2022-10-13T20:56:35.948Z,48.03
2022-10-13T20:59:04.986Z,46.05
2022-10-13T21:01:32.980Z,46.92
2022-10-13T21:04:00.227Z,40.65
2022-10-13T21:06:27.665Z,44.08
2022-10-13T21:08:57.103Z,43.10
2022-10-13T21:11:25.125Z,42.83
2022-10-13T21:13:53.327Z,38.70
2022-10-13T21:16:29.311Z,44.83
2022-10-13T21:18:57.940Z,40.35
2022-10-13T21:21:29.467Z,44.20
2022-10-13T21:23:59.052Z,46.50
2022-10-13T21:26:27.871Z,43.50
2022-10-13T21:28:55.290Z,43.17
2022-10-13T21:31:23.611Z,45.10
2022-10-13T21:33:51.153Z,42.72
2022-10-13T21:36:28.585Z,48.10
2022-10-13T21:38:58.756Z,47.42
2022-10-13T21:41:26.873Z,45.80
2022-10-13T21:43:54.405Z,43.55
2022-10-13T21:46:25.471Z,40.40
2022-10-13T21:48:57.564Z,45.00
2022-10-13T21:51:29.326Z,39.10
2022-10-13T21:53:59.443Z,44.85
2022-10-13T21:56:28.067Z,46.72
2022-10-13T21:58:55.365Z,46.33
2022-10-13T22:01:23.571Z,45.45
2022-10-13T22:03:57.121Z,42.25
2022-10-13T22:06:28.567Z,41.03
2022-10-13T22:08:57.782Z,40.63
2022-10-13T22:11:27.017Z,43.20
2022-10-13T22:13:56.516Z,44.53
2022-10-13T22:16:26.344Z,48.33
2022-10-13T22:18:55.678Z,44.00
2022-10-13T22:21:28.283Z,38.95
2022-10-13T22:24:02.635Z,42.55
2022-10-13T22:26:32.825Z,40.70
2022-10-13T22:29:01.514Z,43.58
2022-10-13T22:31:29.360Z,38.83
2022-10-13T22:33:57.043Z,49.10
2022-10-13T22:36:25.785Z,42.47
2022-10-13T22:38:56.475Z,44.50
2022-10-13T22:41:23.794Z,43.20
2022-10-13T22:43:52.713Z,43.60
2022-10-13T22:46:22.966Z,39.35
2022-10-13T22:48:50.439Z,44.65
2022-10-13T22:51:20.281Z,42.10
2022-10-13T22:53:48.597Z,41.83
2022-10-13T22:56:18.916Z,38.17
2022-10-13T23:03:47.854Z,43.25
2022-10-13T23:06:17.093Z,37.72
2022-10-13T23:08:44.614Z,41.00
2022-10-13T23:11:11.764Z,41.55
2022-10-13T23:13:38.875Z,41.63
2022-10-13T23:16:14.931Z,40.53
2022-10-13T23:18:45.207Z,42.90
2022-10-13T23:21:27.515Z,41.83
2022-10-13T23:24:00.643Z,44.17
2022-10-13T23:26:28.972Z,45.22
2022-10-13T23:28:57.408Z,41.53
2022-10-13T23:31:25.785Z,44.00
2022-10-13T23:33:53.413Z,40.10
2022-10-13T23:36:24.054Z,38.88
2022-10-13T23:38:59.057Z,40.90
2022-10-13T23:41:27.222Z,43.35
2022-10-13T23:43:54.937Z,40.25
2022-10-13T23:46:22.067Z,46.47
2022-10-13T23:48:49.366Z,44.15
2022-10-13T23:51:19.370Z,47.65
2022-10-13T23:53:47.933Z,44.63
2022-10-13T23:56:15.606Z,45.22
2022-10-13T23:58:44.471Z,38.45
